Aviation Digital Data Service (ADDS)

Output produced by METARs form (0428 UTC 24 September 2020)
found at http://www.aviationweather.gov/metar/data/
 
LFRN 240400Z AUTO 18009KT CAVOK 11/09 Q1004 TEMPO 4000 SHRA SCT015CB BKN020TCU
TAF LFRN 232300Z 2400/2424 23012KT 9999 BKN020 
     TEMPO 2405/2418 4000 SHRA SCT015CB BKN020TCU 
     PROB30 
     TEMPO 2410/2415 25015G25KT 2000 TSRA BKN015CB 
     BECMG 2418/2421 22015G25KT 
     TEMPO 2420/2424 4000 SHRA SCT015CB BKN020TCU